logo
Search for airport 
image banner adimage banner adimage banner ad
image banner ad

LSZI - Fricktal-Schupfart

Located in Bad Saeckingen, Switzerland

ICAO - LSZI, IATA -

Data provided by Airmate  

General information

Coordinates: N47°30'32" E7°56'60"
Elevation is 1788 feet MSL.
Magnetic variation is 2.638° East
View others Airports in Aargau

Operational data

Special qualification required
Current time UTC:
Current local time:
Weather at : LFSB - Bale-Mulhouse ( 33 km )
METAR: LFSB 140130Z AUTO 18004KT CAVOK 09/07 Q1024 NOSIG
TAF: TAF LFSB 132300Z 1400/1424 VRB03KT CAVOK TEMPO 1411/1417 29012KT
View NOTAMs / SUP AIP / TFR affecting this airport [VIEW]
Communications frequencies: [VIEW]

Runways:

RWY identifierQFULength (ft)Width (ft)SurfaceLDA (ft)
07L74°173998GRASS
25R254°173998GRASS
0774°173998GRASS
25254°173998GRASS

Airport contact information

Address: Bad Saeckingen Switzerland

Other aviation service providers

Aviation club (not for profit)

Motorfluggruppe Fricktal

Motorfluggruppe Fricktal

Flugschule Fricktal

Flugschule Fricktal

Segelfluggruppe Basel Fricktal

Segelfluggruppe Basel Fricktal

Satellite view of LSZI